French Woods, New York
Current Conditions -  °F | °C
As of 9:35 AM on Friday 24 Oct 2014 (Local Time) from KMSV Reporting Station
Overcast Overcast  
Wind Chill: 41°   Ceiling: 1800
Heat Index: 46°   Visibility: 10mi
Dew Point: 41°   Wind: 12mph
Humidity: 81%   Direction: 310°NW
Pressure: 29.86"   Gusts: 20mph
Location:  41.9099°N, 75.1815°W
Report Text: KMSV 241335Z AUTO 31010G17KT 10SM OVC018 08/05 A2986 RMK AO1 70009
Loading
Personal Weather Stations






























Interactive Weather Map
Tropical Storm Tracking
New forecast layout! Learn more

10-Day Weather Forecast

Advertisements
Track Severe Weather on mobile